Řízení letového provozu České republiky
Letiste: LKPD Aktualizace: 26.07.2016 00:08:11  UTC
 METAR LKPD 26.07. 00:00 ...
METAR LKPD 260000Z 18003KT CAVOK 18/16 Q1017 =
 TAF LKPD 25.07. 17:00 ...
TAF LKPD 251700Z 2518/2618 VRB02KT CAVOK      TEMPO 2602/2606 4000 BR NSC      BECMG 2607/2609 SCT025      TEMPO 2611/2618 34016KT 4000 TSRA SCT020CB SCT040=